sensor_id;sensor_type;location;lat;lon;timestamp;P1;durP1;ratioP1;P2;durP2;ratioP2
22715;SDS011;11525;51.152;4.456;2023-10-09T00:02:05;22.08;;;13.25;;
22715;SDS011;11525;51.152;4.456;2023-10-09T00:04:35;18.98;;;13.20;;
22715;SDS011;11525;51.152;4.456;2023-10-09T00:07:02;16.83;;;12.45;;
22715;SDS011;11525;51.152;4.456;2023-10-09T00:09:28;17.50;;;12.15;;
22715;SDS011;11525;51.152;4.456;2023-10-09T00:11:57;22.27;;;12.75;;
22715;SDS011;11525;51.152;4.456;2023-10-09T00:14:26;18.55;;;11.68;;
22715;SDS011;11525;51.152;4.456;2023-10-09T00:16:56;17.75;;;12.60;;
22715;SDS011;11525;51.152;4.456;2023-10-09T00:19:42;19.85;;;12.43;;
22715;SDS011;11525;51.152;4.456;2023-10-09T00:22:09;17.77;;;11.07;;
22715;SDS011;11525;51.152;4.456;2023-10-09T00:24:42;16.92;;;12.27;;
22715;SDS011;11525;51.152;4.456;2023-10-09T00:27:11;17.02;;;11.82;;
22715;SDS011;11525;51.152;4.456;2023-10-09T00:29:40;16.77;;;11.43;;
22715;SDS011;11525;51.152;4.456;2023-10-09T00:32:10;18.45;;;10.75;;
22715;SDS011;11525;51.152;4.456;2023-10-09T00:34:42;23.00;;;11.95;;
22715;SDS011;11525;51.152;4.456;2023-10-09T00:37:10;17.60;;;11.40;;
22715;SDS011;11525;51.152;4.456;2023-10-09T00:39:42;14.98;;;11.80;;
22715;SDS011;11525;51.152;4.456;2023-10-09T00:42:11;20.27;;;12.23;;
22715;SDS011;11525;51.152;4.456;2023-10-09T00:44:39;18.05;;;12.05;;
22715;SDS011;11525;51.152;4.456;2023-10-09T00:47:07;19.52;;;11.30;;
22715;SDS011;11525;51.152;4.456;2023-10-09T00:49:49;16.80;;;11.27;;
22715;SDS011;11525;51.152;4.456;2023-10-09T00:52:44;16.25;;;10.25;;
22715;SDS011;11525;51.152;4.456;2023-10-09T00:55:19;19.80;;;11.63;;
22715;SDS011;11525;51.152;4.456;2023-10-09T00:58:05;13.82;;;10.65;;
22715;SDS011;11525;51.152;4.456;2023-10-09T01:00:37;15.55;;;10.93;;
22715;SDS011;11525;51.152;4.456;2023-10-09T01:03:16;15.85;;;11.32;;
22715;SDS011;11525;51.152;4.456;2023-10-09T01:05:43;15.98;;;10.75;;
22715;SDS011;11525;51.152;4.456;2023-10-09T01:08:26;19.23;;;11.35;;
22715;SDS011;11525;51.152;4.456;2023-10-09T01:11:11;18.35;;;11.68;;
22715;SDS011;11525;51.152;4.456;2023-10-09T01:13:55;18.13;;;12.02;;
22715;SDS011;11525;51.152;4.456;2023-10-09T01:16:36;15.35;;;10.57;;
22715;SDS011;11525;51.152;4.456;2023-10-09T01:19:02;16.98;;;11.35;;
22715;SDS011;11525;51.152;4.456;2023-10-09T01:21:38;15.20;;;10.43;;
22715;SDS011;11525;51.152;4.456;2023-10-09T01:24:05;17.45;;;10.85;;
22715;SDS011;11525;51.152;4.456;2023-10-09T01:26:35;14.85;;;10.57;;
22715;SDS011;11525;51.152;4.456;2023-10-09T01:29:09;20.30;;;11.60;;
22715;SDS011;11525;51.152;4.456;2023-10-09T01:31:40;18.45;;;12.02;;
22715;SDS011;11525;51.152;4.456;2023-10-09T01:34:15;16.65;;;11.73;;
22715;SDS011;11525;51.152;4.456;2023-10-09T01:36:42;24.80;;;11.73;;
22715;SDS011;11525;51.152;4.456;2023-10-09T01:39:08;15.40;;;11.40;;
22715;SDS011;11525;51.152;4.456;2023-10-09T01:41:50;17.95;;;11.05;;
22715;SDS011;11525;51.152;4.456;2023-10-09T01:44:31;14.10;;;11.57;;
22715;SDS011;11525;51.152;4.456;2023-10-09T01:47:03;16.83;;;11.13;;
22715;SDS011;11525;51.152;4.456;2023-10-09T01:49:38;16.48;;;11.60;;
22715;SDS011;11525;51.152;4.456;2023-10-09T01:52:08;16.35;;;11.70;;
22715;SDS011;11525;51.152;4.456;2023-10-09T01:54:47;18.88;;;11.30;;
22715;SDS011;11525;51.152;4.456;2023-10-09T01:57:17;13.10;;;10.57;;
22715;SDS011;11525;51.152;4.456;2023-10-09T01:59:50;21.00;;;12.68;;
22715;SDS011;11525;51.152;4.456;2023-10-09T02:02:18;18.77;;;11.93;;
22715;SDS011;11525;51.152;4.456;2023-10-09T02:05:03;15.95;;;11.60;;
22715;SDS011;11525;51.152;4.456;2023-10-09T02:07:30;16.42;;;12.23;;
22715;SDS011;11525;51.152;4.456;2023-10-09T02:10:05;19.77;;;11.68;;
22715;SDS011;11525;51.152;4.456;2023-10-09T02:12:46;20.02;;;11.90;;
22715;SDS011;11525;51.152;4.456;2023-10-09T02:15:16;15.45;;;11.38;;
22715;SDS011;11525;51.152;4.456;2023-10-09T02:18:01;18.40;;;11.45;;
22715;SDS011;11525;51.152;4.456;2023-10-09T02:20:41;18.42;;;12.30;;
22715;SDS011;11525;51.152;4.456;2023-10-09T02:23:09;19.20;;;12.10;;
22715;SDS011;11525;51.152;4.456;2023-10-09T02:25:38;16.08;;;11.27;;
22715;SDS011;11525;51.152;4.456;2023-10-09T02:28:11;20.20;;;12.20;;
22715;SDS011;11525;51.152;4.456;2023-10-09T02:30:43;19.58;;;12.18;;
22715;SDS011;11525;51.152;4.456;2023-10-09T02:33:13;18.60;;;11.93;;
22715;SDS011;11525;51.152;4.456;2023-10-09T02:35:55;21.65;;;12.27;;
22715;SDS011;11525;51.152;4.456;2023-10-09T02:38:24;16.77;;;11.52;;
22715;SDS011;11525;51.152;4.456;2023-10-09T02:40:52;16.88;;;12.43;;
22715;SDS011;11525;51.152;4.456;2023-10-09T02:43:27;16.35;;;12.02;;
22715;SDS011;11525;51.152;4.456;2023-10-09T02:46:05;17.67;;;11.82;;
22715;SDS011;11525;51.152;4.456;2023-10-09T02:48:58;18.90;;;12.98;;
22715;SDS011;11525;51.152;4.456;2023-10-09T02:51:24;17.27;;;11.50;;
22715;SDS011;11525;51.152;4.456;2023-10-09T02:53:53;19.73;;;14.07;;
22715;SDS011;11525;51.152;4.456;2023-10-09T02:56:21;18.17;;;13.05;;
22715;SDS011;11525;51.152;4.456;2023-10-09T02:58:53;14.63;;;11.60;;
22715;SDS011;11525;51.152;4.456;2023-10-09T03:01:19;15.27;;;11.32;;
22715;SDS011;11525;51.152;4.456;2023-10-09T03:03:45;19.88;;;12.23;;
22715;SDS011;11525;51.152;4.456;2023-10-09T03:06:12;17.65;;;12.57;;
22715;SDS011;11525;51.152;4.456;2023-10-09T03:08:53;16.85;;;11.15;;
22715;SDS011;11525;51.152;4.456;2023-10-09T03:11:20;21.85;;;12.98;;
22715;SDS011;11525;51.152;4.456;2023-10-09T03:13:45;16.85;;;12.48;;
22715;SDS011;11525;51.152;4.456;2023-10-09T03:16:12;17.10;;;12.15;;
22715;SDS011;11525;51.152;4.456;2023-10-09T03:18:44;23.75;;;12.63;;
22715;SDS011;11525;51.152;4.456;2023-10-09T03:21:19;21.70;;;13.75;;
22715;SDS011;11525;51.152;4.456;2023-10-09T03:23:46;20.27;;;12.60;;
22715;SDS011;11525;51.152;4.456;2023-10-09T03:26:18;21.35;;;13.07;;
22715;SDS011;11525;51.152;4.456;2023-10-09T03:28:45;20.92;;;12.40;;
22715;SDS011;11525;51.152;4.456;2023-10-09T03:31:12;16.80;;;12.68;;
22715;SDS011;11525;51.152;4.456;2023-10-09T03:33:38;17.85;;;12.73;;
22715;SDS011;11525;51.152;4.456;2023-10-09T03:36:04;15.50;;;11.77;;
22715;SDS011;11525;51.152;4.456;2023-10-09T03:38:36;20.17;;;13.48;;
22715;SDS011;11525;51.152;4.456;2023-10-09T03:41:03;17.90;;;12.48;;
22715;SDS011;11525;51.152;4.456;2023-10-09T03:43:34;16.08;;;12.75;;
22715;SDS011;11525;51.152;4.456;2023-10-09T03:46:03;18.63;;;12.50;;
22715;SDS011;11525;51.152;4.456;2023-10-09T03:48:30;18.17;;;13.38;;
22715;SDS011;11525;51.152;4.456;2023-10-09T03:51:01;21.65;;;14.20;;
22715;SDS011;11525;51.152;4.456;2023-10-09T03:53:34;18.52;;;13.35;;
22715;SDS011;11525;51.152;4.456;2023-10-09T03:56:07;23.90;;;16.83;;
22715;SDS011;11525;51.152;4.456;2023-10-09T03:58:46;23.35;;;17.48;;
22715;SDS011;11525;51.152;4.456;2023-10-09T04:01:17;30.02;;;18.52;;
22715;SDS011;11525;51.152;4.456;2023-10-09T04:03:47;26.00;;;18.83;;
22715;SDS011;11525;51.152;4.456;2023-10-09T04:06:12;25.02;;;17.77;;
22715;SDS011;11525;51.152;4.456;2023-10-09T04:08:40;24.77;;;19.25;;
22715;SDS011;11525;51.152;4.456;2023-10-09T04:11:12;24.23;;;18.42;;
22715;SDS011;11525;51.152;4.456;2023-10-09T04:13:42;26.67;;;19.60;;
22715;SDS011;11525;51.152;4.456;2023-10-09T04:16:11;25.70;;;18.17;;
22715;SDS011;11525;51.152;4.456;2023-10-09T04:18:55;26.45;;;17.10;;
22715;SDS011;11525;51.152;4.456;2023-10-09T04:21:22;28.40;;;17.40;;
22715;SDS011;11525;51.152;4.456;2023-10-09T04:24:04;24.90;;;16.23;;
22715;SDS011;11525;51.152;4.456;2023-10-09T04:26:36;23.83;;;15.98;;
22715;SDS011;11525;51.152;4.456;2023-10-09T04:29:15;21.77;;;15.75;;
22715;SDS011;11525;51.152;4.456;2023-10-09T04:32:04;22.15;;;17.00;;
22715;SDS011;11525;51.152;4.456;2023-10-09T04:34:41;26.15;;;15.80;;
22715;SDS011;11525;51.152;4.456;2023-10-09T04:37:27;23.58;;;16.60;;
22715;SDS011;11525;51.152;4.456;2023-10-09T04:40:04;26.35;;;17.88;;
22715;SDS011;11525;51.152;4.456;2023-10-09T04:42:52;20.30;;;15.45;;
22715;SDS011;11525;51.152;4.456;2023-10-09T04:45:24;24.00;;;16.98;;
22715;SDS011;11525;51.152;4.456;2023-10-09T04:48:08;23.08;;;16.73;;
22715;SDS011;11525;51.152;4.456;2023-10-09T04:50:34;26.55;;;17.52;;
22715;SDS011;11525;51.152;4.456;2023-10-09T04:53:01;22.35;;;17.65;;
22715;SDS011;11525;51.152;4.456;2023-10-09T04:55:39;28.83;;;17.42;;
22715;SDS011;11525;51.152;4.456;2023-10-09T04:58:09;27.00;;;18.17;;
22715;SDS011;11525;51.152;4.456;2023-10-09T05:00:38;24.30;;;16.33;;
22715;SDS011;11525;51.152;4.456;2023-10-09T05:03:07;24.42;;;18.00;;
22715;SDS011;11525;51.152;4.456;2023-10-09T05:05:37;27.40;;;18.17;;
22715;SDS011;11525;51.152;4.456;2023-10-09T05:08:10;26.95;;;19.05;;
22715;SDS011;11525;51.152;4.456;2023-10-09T05:18:54;26.05;;;20.50;;
22715;SDS011;11525;51.152;4.456;2023-10-09T05:21:28;29.10;;;21.60;;
22715;SDS011;11525;51.152;4.456;2023-10-09T05:23:57;31.67;;;22.23;;
22715;SDS011;11525;51.152;4.456;2023-10-09T05:26:48;28.90;;;21.38;;
22715;SDS011;11525;51.152;4.456;2023-10-09T05:29:18;31.55;;;22.23;;
22715;SDS011;11525;51.152;4.456;2023-10-09T05:31:58;31.67;;;22.08;;
22715;SDS011;11525;51.152;4.456;2023-10-09T05:34:38;27.50;;;21.48;;
22715;SDS011;11525;51.152;4.456;2023-10-09T05:37:22;29.42;;;22.88;;
22715;SDS011;11525;51.152;4.456;2023-10-09T05:39:56;31.98;;;23.92;;
22715;SDS011;11525;51.152;4.456;2023-10-09T05:42:29;37.08;;;23.60;;
22715;SDS011;11525;51.152;4.456;2023-10-09T05:45:17;30.75;;;23.23;;
22715;SDS011;11525;51.152;4.456;2023-10-09T05:47:52;33.65;;;23.88;;
22715;SDS011;11525;51.152;4.456;2023-10-09T05:50:19;29.50;;;23.45;;
22715;SDS011;11525;51.152;4.456;2023-10-09T05:53:05;32.40;;;24.35;;
22715;SDS011;11525;51.152;4.456;2023-10-09T05:55:42;31.92;;;23.33;;
22715;SDS011;11525;51.152;4.456;2023-10-09T05:58:34;34.85;;;23.98;;
22715;SDS011;11525;51.152;4.456;2023-10-09T06:01:18;34.15;;;24.10;;
22715;SDS011;11525;51.152;4.456;2023-10-09T06:04:13;32.10;;;23.58;;
22715;SDS011;11525;51.152;4.456;2023-10-09T06:06:42;31.65;;;22.88;;
22715;SDS011;11525;51.152;4.456;2023-10-09T06:09:20;36.22;;;25.58;;
22715;SDS011;11525;51.152;4.456;2023-10-09T06:11:47;32.35;;;24.92;;
22715;SDS011;11525;51.152;4.456;2023-10-09T06:14:15;36.40;;;25.88;;
22715;SDS011;11525;51.152;4.456;2023-10-09T06:16:50;26.90;;;20.70;;
22715;SDS011;11525;51.152;4.456;2023-10-09T06:19:22;36.85;;;25.58;;
22715;SDS011;11525;51.152;4.456;2023-10-09T06:21:53;36.65;;;25.67;;
22715;SDS011;11525;51.152;4.456;2023-10-09T06:24:29;34.85;;;26.80;;
22715;SDS011;11525;51.152;4.456;2023-10-09T06:27:06;33.17;;;24.63;;
22715;SDS011;11525;51.152;4.456;2023-10-09T06:29:32;34.05;;;26.05;;
22715;SDS011;11525;51.152;4.456;2023-10-09T06:32:15;40.90;;;27.90;;
22715;SDS011;11525;51.152;4.456;2023-10-09T06:34:49;33.33;;;26.42;;
22715;SDS011;11525;51.152;4.456;2023-10-09T06:37:21;35.63;;;25.77;;
22715;SDS011;11525;51.152;4.456;2023-10-09T06:39:48;36.20;;;27.23;;
22715;SDS011;11525;51.152;4.456;2023-10-09T06:42:23;44.75;;;27.45;;
22715;SDS011;11525;51.152;4.456;2023-10-09T06:45:01;34.13;;;24.50;;
22715;SDS011;11525;51.152;4.456;2023-10-09T06:47:42;32.40;;;26.05;;
22715;SDS011;11525;51.152;4.456;2023-10-09T06:50:21;37.85;;;26.25;;
22715;SDS011;11525;51.152;4.456;2023-10-09T06:52:51;35.50;;;26.58;;
22715;SDS011;11525;51.152;4.456;2023-10-09T06:55:36;33.53;;;25.02;;
22715;SDS011;11525;51.152;4.456;2023-10-09T06:58:13;39.35;;;26.75;;
22715;SDS011;11525;51.152;4.456;2023-10-09T07:01:09;42.20;;;27.50;;
22715;SDS011;11525;51.152;4.456;2023-10-09T07:03:45;39.58;;;25.05;;
22715;SDS011;11525;51.152;4.456;2023-10-09T07:06:25;27.83;;;21.63;;
22715;SDS011;11525;51.152;4.456;2023-10-09T07:09:01;35.22;;;24.15;;
22715;SDS011;11525;51.152;4.456;2023-10-09T07:14:23;34.97;;;24.77;;
22715;SDS011;11525;51.152;4.456;2023-10-09T07:17:01;36.83;;;25.67;;
22715;SDS011;11525;51.152;4.456;2023-10-09T07:19:53;32.65;;;23.02;;
22715;SDS011;11525;51.152;4.456;2023-10-09T07:22:19;34.45;;;24.00;;
22715;SDS011;11525;51.152;4.456;2023-10-09T07:24:45;30.73;;;23.20;;
22715;SDS011;11525;51.152;4.456;2023-10-09T07:27:31;30.30;;;21.73;;
22715;SDS011;11525;51.152;4.456;2023-10-09T07:30:14;31.67;;;22.02;;
22715;SDS011;11525;51.152;4.456;2023-10-09T07:32:56;32.00;;;20.33;;
22715;SDS011;11525;51.152;4.456;2023-10-09T07:35:49;28.95;;;21.15;;
22715;SDS011;11525;51.152;4.456;2023-10-09T07:38:18;28.15;;;21.25;;
22715;SDS011;11525;51.152;4.456;2023-10-09T07:40:49;29.20;;;21.23;;
22715;SDS011;11525;51.152;4.456;2023-10-09T07:43:32;32.38;;;20.98;;
22715;SDS011;11525;51.152;4.456;2023-10-09T07:46:10;27.70;;;20.30;;
22715;SDS011;11525;51.152;4.456;2023-10-09T07:49:04;31.05;;;20.55;;
22715;SDS011;11525;51.152;4.456;2023-10-09T07:51:34;29.77;;;20.65;;
22715;SDS011;11525;51.152;4.456;2023-10-09T07:54:01;32.95;;;21.50;;
22715;SDS011;11525;51.152;4.456;2023-10-09T07:56:34;34.58;;;21.48;;
22715;SDS011;11525;51.152;4.456;2023-10-09T07:59:06;29.98;;;20.20;;
22715;SDS011;11525;51.152;4.456;2023-10-09T08:01:43;29.40;;;20.40;;
22715;SDS011;11525;51.152;4.456;2023-10-09T08:04:39;29.88;;;20.15;;
22715;SDS011;11525;51.152;4.456;2023-10-09T08:07:14;32.15;;;19.35;;
22715;SDS011;11525;51.152;4.456;2023-10-09T08:10:00;30.98;;;19.80;;
22715;SDS011;11525;51.152;4.456;2023-10-09T08:12:44;27.38;;;18.90;;
22715;SDS011;11525;51.152;4.456;2023-10-09T08:15:22;31.60;;;20.90;;
22715;SDS011;11525;51.152;4.456;2023-10-09T08:17:55;30.98;;;19.95;;
22715;SDS011;11525;51.152;4.456;2023-10-09T08:20:24;27.23;;;18.63;;
22715;SDS011;11525;51.152;4.456;2023-10-09T08:22:53;22.73;;;18.15;;
22715;SDS011;11525;51.152;4.456;2023-10-09T08:25:23;30.83;;;18.42;;
22715;SDS011;11525;51.152;4.456;2023-10-09T08:27:57;26.10;;;17.35;;
22715;SDS011;11525;51.152;4.456;2023-10-09T08:30:44;26.48;;;17.40;;
22715;SDS011;11525;51.152;4.456;2023-10-09T08:33:17;23.77;;;18.02;;
22715;SDS011;11525;51.152;4.456;2023-10-09T08:35:52;39.83;;;20.05;;
22715;SDS011;11525;51.152;4.456;2023-10-09T08:38:27;28.98;;;18.05;;
22715;SDS011;11525;51.152;4.456;2023-10-09T08:41:05;28.25;;;18.73;;
22715;SDS011;11525;51.152;4.456;2023-10-09T08:43:41;26.15;;;18.67;;
22715;SDS011;11525;51.152;4.456;2023-10-09T08:46:12;27.10;;;17.00;;
22715;SDS011;11525;51.152;4.456;2023-10-09T08:48:43;26.30;;;17.25;;
22715;SDS011;11525;51.152;4.456;2023-10-09T08:51:10;30.23;;;17.60;;
22715;SDS011;11525;51.152;4.456;2023-10-09T08:53:36;25.88;;;16.67;;
22715;SDS011;11525;51.152;4.456;2023-10-09T08:56:10;27.20;;;17.17;;
22715;SDS011;11525;51.152;4.456;2023-10-09T08:58:47;21.17;;;15.10;;
22715;SDS011;11525;51.152;4.456;2023-10-09T09:01:17;23.35;;;15.57;;
22715;SDS011;11525;51.152;4.456;2023-10-09T09:03:47;25.15;;;16.00;;
22715;SDS011;11525;51.152;4.456;2023-10-09T09:06:15;25.75;;;15.43;;
22715;SDS011;11525;51.152;4.456;2023-10-09T09:08:44;23.83;;;15.35;;
22715;SDS011;11525;51.152;4.456;2023-10-09T09:11:11;25.00;;;16.23;;
22715;SDS011;11525;51.152;4.456;2023-10-09T09:13:39;21.35;;;14.52;;
22715;SDS011;11525;51.152;4.456;2023-10-09T09:16:15;21.75;;;14.98;;
22715;SDS011;11525;51.152;4.456;2023-10-09T09:21:38;24.05;;;13.20;;
22715;SDS011;11525;51.152;4.456;2023-10-09T09:24:10;20.77;;;12.48;;
22715;SDS011;11525;51.152;4.456;2023-10-09T09:26:51;25.10;;;13.02;;
22715;SDS011;11525;51.152;4.456;2023-10-09T09:32:02;27.77;;;14.57;;
22715;SDS011;11525;51.152;4.456;2023-10-09T09:34:59;22.48;;;13.23;;
22715;SDS011;11525;51.152;4.456;2023-10-09T09:37:29;17.95;;;11.95;;
22715;SDS011;11525;51.152;4.456;2023-10-09T09:40:15;24.77;;;14.32;;
22715;SDS011;11525;51.152;4.456;2023-10-09T09:42:58;20.33;;;13.52;;
22715;SDS011;11525;51.152;4.456;2023-10-09T09:45:35;21.67;;;13.60;;
22715;SDS011;11525;51.152;4.456;2023-10-09T09:48:04;26.38;;;14.05;;
22715;SDS011;11525;51.152;4.456;2023-10-09T09:50:40;23.73;;;14.23;;
22715;SDS011;11525;51.152;4.456;2023-10-09T09:53:12;20.10;;;11.57;;
22715;SDS011;11525;51.152;4.456;2023-10-09T09:55:43;22.45;;;13.13;;
22715;SDS011;11525;51.152;4.456;2023-10-09T09:58:17;18.50;;;12.35;;
22715;SDS011;11525;51.152;4.456;2023-10-09T10:00:49;23.48;;;13.73;;
22715;SDS011;11525;51.152;4.456;2023-10-09T10:03:30;18.42;;;12.60;;
22715;SDS011;11525;51.152;4.456;2023-10-09T10:06:01;21.92;;;13.20;;
22715;SDS011;11525;51.152;4.456;2023-10-09T10:08:35;19.40;;;13.05;;
22715;SDS011;11525;51.152;4.456;2023-10-09T10:11:04;19.23;;;12.52;;
22715;SDS011;11525;51.152;4.456;2023-10-09T10:21:46;18.00;;;12.05;;
22715;SDS011;11525;51.152;4.456;2023-10-09T10:27:22;22.83;;;13.23;;
22715;SDS011;11525;51.152;4.456;2023-10-09T10:35:20;20.40;;;13.35;;
22715;SDS011;11525;51.152;4.456;2023-10-09T10:37:57;19.90;;;13.45;;
22715;SDS011;11525;51.152;4.456;2023-10-09T10:40:33;17.95;;;11.10;;
22715;SDS011;11525;51.152;4.456;2023-10-09T10:43:27;21.02;;;12.52;;
22715;SDS011;11525;51.152;4.456;2023-10-09T10:46:12;22.23;;;13.40;;
22715;SDS011;11525;51.152;4.456;2023-10-09T10:48:43;16.52;;;12.38;;
22715;SDS011;11525;51.152;4.456;2023-10-09T10:51:12;22.85;;;12.63;;
22715;SDS011;11525;51.152;4.456;2023-10-09T10:53:52;32.72;;;14.35;;
22715;SDS011;11525;51.152;4.456;2023-10-09T10:56:25;25.75;;;13.38;;
22715;SDS011;11525;51.152;4.456;2023-10-09T10:59:01;19.25;;;12.18;;
22715;SDS011;11525;51.152;4.456;2023-10-09T11:01:30;20.63;;;12.48;;
22715;SDS011;11525;51.152;4.456;2023-10-09T11:04:25;21.27;;;13.88;;
22715;SDS011;11525;51.152;4.456;2023-10-09T11:06:55;24.90;;;13.93;;
22715;SDS011;11525;51.152;4.456;2023-10-09T11:09:26;21.85;;;13.85;;
22715;SDS011;11525;51.152;4.456;2023-10-09T11:12:04;22.52;;;13.77;;
22715;SDS011;11525;51.152;4.456;2023-10-09T11:15:05;22.27;;;13.77;;
22715;SDS011;11525;51.152;4.456;2023-10-09T11:17:36;26.02;;;14.77;;
22715;SDS011;11525;51.152;4.456;2023-10-09T11:20:04;21.63;;;14.50;;
22715;SDS011;11525;51.152;4.456;2023-10-09T11:22:51;26.27;;;16.23;;
22715;SDS011;11525;51.152;4.456;2023-10-09T11:25:39;28.63;;;15.40;;
22715;SDS011;11525;51.152;4.456;2023-10-09T11:28:24;25.00;;;15.32;;
22715;SDS011;11525;51.152;4.456;2023-10-09T11:31:13;25.40;;;16.42;;
22715;SDS011;11525;51.152;4.456;2023-10-09T11:33:44;23.98;;;14.73;;
22715;SDS011;11525;51.152;4.456;2023-10-09T11:36:13;23.42;;;15.68;;
22715;SDS011;11525;51.152;4.456;2023-10-09T11:39:01;25.73;;;16.67;;
22715;SDS011;11525;51.152;4.456;2023-10-09T11:41:47;27.98;;;16.00;;
22715;SDS011;11525;51.152;4.456;2023-10-09T11:44:15;27.00;;;15.68;;
22715;SDS011;11525;51.152;4.456;2023-10-09T11:47:01;54.28;;;17.55;;
22715;SDS011;11525;51.152;4.456;2023-10-09T11:49:49;25.17;;;17.33;;
22715;SDS011;11525;51.152;4.456;2023-10-09T11:52:26;31.77;;;17.15;;
22715;SDS011;11525;51.152;4.456;2023-10-09T11:55:03;24.33;;;16.10;;
22715;SDS011;11525;51.152;4.456;2023-10-09T11:57:32;25.55;;;15.15;;
22715;SDS011;11525;51.152;4.456;2023-10-09T12:00:00;24.52;;;14.85;;
22715;SDS011;11525;51.152;4.456;2023-10-09T12:02:29;32.97;;;17.38;;
22715;SDS011;11525;51.152;4.456;2023-10-09T12:04:56;28.40;;;16.48;;
22715;SDS011;11525;51.152;4.456;2023-10-09T12:07:23;27.45;;;17.77;;
22715;SDS011;11525;51.152;4.456;2023-10-09T12:09:50;24.77;;;16.58;;
22715;SDS011;11525;51.152;4.456;2023-10-09T12:12:21;39.95;;;18.08;;
22715;SDS011;11525;51.152;4.456;2023-10-09T12:14:51;24.08;;;15.77;;
22715;SDS011;11525;51.152;4.456;2023-10-09T12:17:18;35.15;;;20.73;;
22715;SDS011;11525;51.152;4.456;2023-10-09T12:19:43;29.30;;;18.88;;
22715;SDS011;11525;51.152;4.456;2023-10-09T12:22:09;32.72;;;19.27;;
22715;SDS011;11525;51.152;4.456;2023-10-09T12:24:36;29.10;;;19.02;;
22715;SDS011;11525;51.152;4.456;2023-10-09T12:27:02;24.33;;;17.58;;
22715;SDS011;11525;51.152;4.456;2023-10-09T12:29:35;29.02;;;17.90;;
22715;SDS011;11525;51.152;4.456;2023-10-09T12:32:00;28.13;;;18.52;;
22715;SDS011;11525;51.152;4.456;2023-10-09T12:34:28;25.83;;;17.13;;
22715;SDS011;11525;51.152;4.456;2023-10-09T12:36:56;25.10;;;16.90;;
22715;SDS011;11525;51.152;4.456;2023-10-09T12:39:26;29.00;;;16.60;;
22715;SDS011;11525;51.152;4.456;2023-10-09T12:41:58;28.35;;;16.85;;
22715;SDS011;11525;51.152;4.456;2023-10-09T12:44:37;27.50;;;16.27;;
22715;SDS011;11525;51.152;4.456;2023-10-09T12:47:06;27.27;;;16.92;;
22715;SDS011;11525;51.152;4.456;2023-10-09T12:49:32;25.02;;;17.02;;
22715;SDS011;11525;51.152;4.456;2023-10-09T12:51:57;27.10;;;16.75;;
22715;SDS011;11525;51.152;4.456;2023-10-09T12:54:27;25.75;;;16.67;;
22715;SDS011;11525;51.152;4.456;2023-10-09T12:56:53;28.75;;;17.17;;
22715;SDS011;11525;51.152;4.456;2023-10-09T12:59:20;23.90;;;16.67;;
22715;SDS011;11525;51.152;4.456;2023-10-09T13:01:47;27.60;;;16.33;;
22715;SDS011;11525;51.152;4.456;2023-10-09T13:04:22;27.58;;;17.17;;
22715;SDS011;11525;51.152;4.456;2023-10-09T13:06:49;21.70;;;14.50;;
22715;SDS011;11525;51.152;4.456;2023-10-09T13:09:19;30.95;;;16.45;;
22715;SDS011;11525;51.152;4.456;2023-10-09T13:11:59;27.30;;;16.70;;
22715;SDS011;11525;51.152;4.456;2023-10-09T13:14:28;27.90;;;17.20;;
22715;SDS011;11525;51.152;4.456;2023-10-09T13:16:59;25.27;;;16.23;;
22715;SDS011;11525;51.152;4.456;2023-10-09T13:19:24;25.80;;;16.75;;
22715;SDS011;11525;51.152;4.456;2023-10-09T13:21:50;27.40;;;15.88;;
22715;SDS011;11525;51.152;4.456;2023-10-09T13:24:19;27.40;;;14.35;;
22715;SDS011;11525;51.152;4.456;2023-10-09T13:26:49;25.70;;;15.45;;
22715;SDS011;11525;51.152;4.456;2023-10-09T13:29:18;24.50;;;15.13;;
22715;SDS011;11525;51.152;4.456;2023-10-09T13:31:49;29.55;;;15.50;;
22715;SDS011;11525;51.152;4.456;2023-10-09T13:34:22;24.45;;;14.43;;
22715;SDS011;11525;51.152;4.456;2023-10-09T13:36:53;18.77;;;13.98;;
22715;SDS011;11525;51.152;4.456;2023-10-09T13:39:20;27.17;;;14.77;;
22715;SDS011;11525;51.152;4.456;2023-10-09T13:44:26;20.75;;;12.32;;
22715;SDS011;11525;51.152;4.456;2023-10-09T13:46:56;21.58;;;14.15;;
22715;SDS011;11525;51.152;4.456;2023-10-09T13:49:24;23.50;;;12.82;;
22715;SDS011;11525;51.152;4.456;2023-10-09T13:51:55;24.63;;;12.85;;
22715;SDS011;11525;51.152;4.456;2023-10-09T13:54:22;18.05;;;11.57;;
22715;SDS011;11525;51.152;4.456;2023-10-09T13:56:57;20.45;;;12.13;;
22715;SDS011;11525;51.152;4.456;2023-10-09T13:59:23;20.38;;;11.63;;
22715;SDS011;11525;51.152;4.456;2023-10-09T14:01:52;22.65;;;12.57;;
22715;SDS011;11525;51.152;4.456;2023-10-09T14:04:21;21.40;;;12.57;;
22715;SDS011;11525;51.152;4.456;2023-10-09T14:06:48;25.15;;;11.98;;
22715;SDS011;11525;51.152;4.456;2023-10-09T14:09:25;19.13;;;11.43;;
22715;SDS011;11525;51.152;4.456;2023-10-09T14:12:02;19.65;;;11.88;;
22715;SDS011;11525;51.152;4.456;2023-10-09T14:14:37;20.85;;;13.63;;
22715;SDS011;11525;51.152;4.456;2023-10-09T14:17:12;21.15;;;11.95;;
22715;SDS011;11525;51.152;4.456;2023-10-09T14:19:48;21.70;;;12.57;;
22715;SDS011;11525;51.152;4.456;2023-10-09T14:22:22;25.38;;;15.00;;
22715;SDS011;11525;51.152;4.456;2023-10-09T14:24:52;26.52;;;14.25;;
22715;SDS011;11525;51.152;4.456;2023-10-09T14:27:22;18.25;;;11.15;;
22715;SDS011;11525;51.152;4.456;2023-10-09T14:29:54;23.15;;;13.05;;
22715;SDS011;11525;51.152;4.456;2023-10-09T14:32:22;26.80;;;13.32;;
22715;SDS011;11525;51.152;4.456;2023-10-09T14:34:54;23.00;;;14.05;;
22715;SDS011;11525;51.152;4.456;2023-10-09T14:37:26;22.60;;;14.38;;
22715;SDS011;11525;51.152;4.456;2023-10-09T14:39:52;23.10;;;13.73;;
22715;SDS011;11525;51.152;4.456;2023-10-09T14:42:20;27.23;;;15.45;;
22715;SDS011;11525;51.152;4.456;2023-10-09T14:44:48;29.17;;;15.43;;
22715;SDS011;11525;51.152;4.456;2023-10-09T14:47:15;25.55;;;15.48;;
22715;SDS011;11525;51.152;4.456;2023-10-09T14:49:41;26.20;;;14.80;;
22715;SDS011;11525;51.152;4.456;2023-10-09T14:52:11;23.63;;;14.40;;
22715;SDS011;11525;51.152;4.456;2023-10-09T14:54:41;26.05;;;15.98;;
22715;SDS011;11525;51.152;4.456;2023-10-09T14:57:09;30.25;;;17.35;;
22715;SDS011;11525;51.152;4.456;2023-10-09T14:59:36;32.95;;;18.73;;
22715;SDS011;11525;51.152;4.456;2023-10-09T15:02:02;32.05;;;18.17;;
22715;SDS011;11525;51.152;4.456;2023-10-09T15:04:30;28.58;;;18.75;;
22715;SDS011;11525;51.152;4.456;2023-10-09T15:07:05;36.45;;;21.10;;
22715;SDS011;11525;51.152;4.456;2023-10-09T15:09:36;20.42;;;14.23;;
22715;SDS011;11525;51.152;4.456;2023-10-09T15:12:08;26.95;;;17.38;;
22715;SDS011;11525;51.152;4.456;2023-10-09T15:14:34;32.15;;;19.33;;
22715;SDS011;11525;51.152;4.456;2023-10-09T15:16:59;34.67;;;21.27;;
22715;SDS011;11525;51.152;4.456;2023-10-09T15:19:25;32.63;;;19.10;;
22715;SDS011;11525;51.152;4.456;2023-10-09T15:21:55;29.88;;;19.25;;
22715;SDS011;11525;51.152;4.456;2023-10-09T15:24:24;29.40;;;18.30;;
22715;SDS011;11525;51.152;4.456;2023-10-09T15:26:50;33.55;;;18.38;;
22715;SDS011;11525;51.152;4.456;2023-10-09T15:29:22;24.08;;;16.00;;
22715;SDS011;11525;51.152;4.456;2023-10-09T15:31:54;35.25;;;18.83;;
22715;SDS011;11525;51.152;4.456;2023-10-09T15:34:20;30.58;;;16.95;;